sensor_id;sensor_type;location;lat;lon;timestamp;temperature;humidity
12152;DHT22;6139;51.274;7.128;2023-03-01T00:00:31;0.40;1.00
12152;DHT22;6139;51.274;7.128;2023-03-01T00:01:33;0.40;1.00
12152;DHT22;6139;51.274;7.128;2023-03-01T00:02:35;0.40;1.00
12152;DHT22;6139;51.274;7.128;2023-03-01T00:03:37;0.40;1.00
12152;DHT22;6139;51.274;7.128;2023-03-01T00:04:39;0.40;1.00
12152;DHT22;6139;51.274;7.128;2023-03-01T00:05:44;0.40;1.00
12152;DHT22;6139;51.274;7.128;2023-03-01T00:06:46;0.50;1.00
12152;DHT22;6139;51.274;7.128;2023-03-01T00:07:47;0.40;1.00
12152;DHT22;6139;51.274;7.128;2023-03-01T00:08:49;0.40;1.00
12152;DHT22;6139;51.274;7.128;2023-03-01T00:09:50;0.50;1.00
12152;DHT22;6139;51.274;7.128;2023-03-01T00:11:00;0.50;1.00
12152;DHT22;6139;51.274;7.128;2023-03-01T00:12:01;0.50;1.00
12152;DHT22;6139;51.274;7.128;2023-03-01T00:13:03;0.50;1.00
12152;DHT22;6139;51.274;7.128;2023-03-01T00:14:05;0.40;1.00
12152;DHT22;6139;51.274;7.128;2023-03-01T00:15:08;0.40;1.00
12152;DHT22;6139;51.274;7.128;2023-03-01T00:16:10;0.40;1.00
12152;DHT22;6139;51.274;7.128;2023-03-01T00:17:15;0.50;1.00
12152;DHT22;6139;51.274;7.128;2023-03-01T00:18:15;0.40;1.00
12152;DHT22;6139;51.274;7.128;2023-03-01T00:19:19;0.50;1.00
12152;DHT22;6139;51.274;7.128;2023-03-01T00:20:20;0.50;1.00
12152;DHT22;6139;51.274;7.128;2023-03-01T00:21:23;0.40;1.00
12152;DHT22;6139;51.274;7.128;2023-03-01T00:22:24;0.40;1.00
12152;DHT22;6139;51.274;7.128;2023-03-01T00:23:28;0.40;1.00
12152;DHT22;6139;51.274;7.128;2023-03-01T00:24:29;0.40;1.00
12152;DHT22;6139;51.274;7.128;2023-03-01T00:25:31;0.40;1.00
12152;DHT22;6139;51.274;7.128;2023-03-01T00:26:32;0.30;1.00
12152;DHT22;6139;51.274;7.128;2023-03-01T00:27:34;0.40;1.00
12152;DHT22;6139;51.274;7.128;2023-03-01T00:28:36;0.40;1.00
12152;DHT22;6139;51.274;7.128;2023-03-01T00:29:38;0.30;1.00
12152;DHT22;6139;51.274;7.128;2023-03-01T00:30:39;0.40;1.00
12152;DHT22;6139;51.274;7.128;2023-03-01T00:31:41;0.40;1.00
12152;DHT22;6139;51.274;7.128;2023-03-01T00:32:43;0.40;1.00
12152;DHT22;6139;51.274;7.128;2023-03-01T00:33:45;0.40;1.00
12152;DHT22;6139;51.274;7.128;2023-03-01T00:34:46;0.50;1.00
12152;DHT22;6139;51.274;7.128;2023-03-01T00:35:54;0.50;1.00
12152;DHT22;6139;51.274;7.128;2023-03-01T00:36:55;0.50;1.00
12152;DHT22;6139;51.274;7.128;2023-03-01T00:38:06;0.40;1.00
12152;DHT22;6139;51.274;7.128;2023-03-01T00:39:11;0.40;1.00
12152;DHT22;6139;51.274;7.128;2023-03-01T00:40:13;0.40;1.00
12152;DHT22;6139;51.274;7.128;2023-03-01T00:41:18;0.50;1.00
12152;DHT22;6139;51.274;7.128;2023-03-01T00:42:20;0.40;1.00
12152;DHT22;6139;51.274;7.128;2023-03-01T00:43:22;0.40;1.00
12152;DHT22;6139;51.274;7.128;2023-03-01T00:44:23;0.40;1.00
12152;DHT22;6139;51.274;7.128;2023-03-01T00:45:25;0.40;1.00
12152;DHT22;6139;51.274;7.128;2023-03-01T00:46:27;0.30;1.00
12152;DHT22;6139;51.274;7.128;2023-03-01T00:47:30;0.30;1.00
12152;DHT22;6139;51.274;7.128;2023-03-01T00:48:33;0.30;1.00
12152;DHT22;6139;51.274;7.128;2023-03-01T00:49:35;0.20;1.00
12152;DHT22;6139;51.274;7.128;2023-03-01T00:50:36;0.20;1.00
12152;DHT22;6139;51.274;7.128;2023-03-01T00:51:38;0.20;1.00
12152;DHT22;6139;51.274;7.128;2023-03-01T00:52:42;0.20;1.00
12152;DHT22;6139;51.274;7.128;2023-03-01T00:53:43;0.10;1.00
12152;DHT22;6139;51.274;7.128;2023-03-01T00:54:45;0.10;1.00
12152;DHT22;6139;51.274;7.128;2023-03-01T00:55:47;0.10;1.00
12152;DHT22;6139;51.274;7.128;2023-03-01T00:56:49;0.10;1.00
12152;DHT22;6139;51.274;7.128;2023-03-01T00:57:50;0.10;1.00
12152;DHT22;6139;51.274;7.128;2023-03-01T00:58:52;0.00;1.00
12152;DHT22;6139;51.274;7.128;2023-03-01T00:59:53;0.00;1.00
12152;DHT22;6139;51.274;7.128;2023-03-01T01:00:55;0.00;1.00
12152;DHT22;6139;51.274;7.128;2023-03-01T01:01:56;0.00;1.00
12152;DHT22;6139;51.274;7.128;2023-03-01T01:02:59;0.00;1.00
12152;DHT22;6139;51.274;7.128;2023-03-01T01:04:05;-0.10;1.00
12152;DHT22;6139;51.274;7.128;2023-03-01T01:05:07;-0.10;1.00
12152;DHT22;6139;51.274;7.128;2023-03-01T01:06:13;-0.10;1.00
12152;DHT22;6139;51.274;7.128;2023-03-01T01:07:15;-0.10;1.00
12152;DHT22;6139;51.274;7.128;2023-03-01T01:08:16;-0.10;1.00
12152;DHT22;6139;51.274;7.128;2023-03-01T01:09:18;-0.10;1.00
12152;DHT22;6139;51.274;7.128;2023-03-01T01:10:19;-0.10;1.00
12152;DHT22;6139;51.274;7.128;2023-03-01T01:11:22;-0.10;1.00
12152;DHT22;6139;51.274;7.128;2023-03-01T01:12:23;-0.10;1.00
12152;DHT22;6139;51.274;7.128;2023-03-01T01:13:25;-0.10;1.00
12152;DHT22;6139;51.274;7.128;2023-03-01T01:14:26;-0.10;1.00
12152;DHT22;6139;51.274;7.128;2023-03-01T01:15:28;-0.10;1.00
12152;DHT22;6139;51.274;7.128;2023-03-01T01:16:29;-0.10;1.00
12152;DHT22;6139;51.274;7.128;2023-03-01T01:17:31;-0.10;1.00
12152;DHT22;6139;51.274;7.128;2023-03-01T01:18:32;-0.10;1.00
12152;DHT22;6139;51.274;7.128;2023-03-01T01:19:36;0.00;1.00
12152;DHT22;6139;51.274;7.128;2023-03-01T01:20:37;-0.10;1.00
12152;DHT22;6139;51.274;7.128;2023-03-01T01:21:39;-0.10;1.00
12152;DHT22;6139;51.274;7.128;2023-03-01T01:22:40;-0.10;1.00
12152;DHT22;6139;51.274;7.128;2023-03-01T01:23:44;-0.10;1.00
12152;DHT22;6139;51.274;7.128;2023-03-01T01:24:46;-0.10;1.00
12152;DHT22;6139;51.274;7.128;2023-03-01T01:25:48;-0.10;1.00
12152;DHT22;6139;51.274;7.128;2023-03-01T01:26:49;-0.10;1.00
12152;DHT22;6139;51.274;7.128;2023-03-01T01:27:51;-0.10;1.00
12152;DHT22;6139;51.274;7.128;2023-03-01T01:28:53;-0.10;1.00
12152;DHT22;6139;51.274;7.128;2023-03-01T01:29:55;-0.10;1.00
12152;DHT22;6139;51.274;7.128;2023-03-01T01:30:56;-0.10;1.00
12152;DHT22;6139;51.274;7.128;2023-03-01T01:31:58;-0.10;1.00
12152;DHT22;6139;51.274;7.128;2023-03-01T01:33:00;-0.10;1.00
12152;DHT22;6139;51.274;7.128;2023-03-01T01:34:03;-0.10;1.00
12152;DHT22;6139;51.274;7.128;2023-03-01T01:35:07;-0.10;1.00
12152;DHT22;6139;51.274;7.128;2023-03-01T01:36:09;-0.10;1.00
12152;DHT22;6139;51.274;7.128;2023-03-01T01:37:11;-0.10;1.00
12152;DHT22;6139;51.274;7.128;2023-03-01T01:38:12;-0.10;1.00
12152;DHT22;6139;51.274;7.128;2023-03-01T01:39:13;-0.10;1.00
12152;DHT22;6139;51.274;7.128;2023-03-01T01:40:14;-0.10;1.00
12152;DHT22;6139;51.274;7.128;2023-03-01T01:41:17;-0.10;1.00
12152;DHT22;6139;51.274;7.128;2023-03-01T01:42:19;-0.10;1.00
12152;DHT22;6139;51.274;7.128;2023-03-01T01:43:23;-0.10;1.00
12152;DHT22;6139;51.274;7.128;2023-03-01T01:44:25;-0.10;1.00
12152;DHT22;6139;51.274;7.128;2023-03-01T01:45:31;-0.20;1.00
12152;DHT22;6139;51.274;7.128;2023-03-01T01:46:34;-0.20;1.00
12152;DHT22;6139;51.274;7.128;2023-03-01T01:47:37;-0.30;1.00
12152;DHT22;6139;51.274;7.128;2023-03-01T01:48:42;-0.30;1.00
12152;DHT22;6139;51.274;7.128;2023-03-01T01:49:47;-0.40;1.00
12152;DHT22;6139;51.274;7.128;2023-03-01T01:50:55;-0.40;1.00
12152;DHT22;6139;51.274;7.128;2023-03-01T01:52:09;-0.50;1.00
12152;DHT22;6139;51.274;7.128;2023-03-01T01:53:15;-0.50;1.00
12152;DHT22;6139;51.274;7.128;2023-03-01T01:54:21;-0.50;1.00
12152;DHT22;6139;51.274;7.128;2023-03-01T01:55:26;-0.60;1.00
12152;DHT22;6139;51.274;7.128;2023-03-01T01:56:29;-0.60;1.00
12152;DHT22;6139;51.274;7.128;2023-03-01T01:57:34;-0.60;1.00
12152;DHT22;6139;51.274;7.128;2023-03-01T01:58:38;-0.60;1.00
12152;DHT22;6139;51.274;7.128;2023-03-01T01:59:40;-0.70;1.00
12152;DHT22;6139;51.274;7.128;2023-03-01T02:00:44;-0.70;1.00
12152;DHT22;6139;51.274;7.128;2023-03-01T02:01:45;-0.80;1.00
12152;DHT22;6139;51.274;7.128;2023-03-01T02:02:49;-0.90;1.00
12152;DHT22;6139;51.274;7.128;2023-03-01T02:03:52;-0.90;1.00
12152;DHT22;6139;51.274;7.128;2023-03-01T02:05:01;-0.90;1.00
12152;DHT22;6139;51.274;7.128;2023-03-01T02:06:11;-0.90;1.00
12152;DHT22;6139;51.274;7.128;2023-03-01T02:07:15;-0.90;1.00
12152;DHT22;6139;51.274;7.128;2023-03-01T02:08:18;-0.90;1.00
12152;DHT22;6139;51.274;7.128;2023-03-01T02:09:22;-0.90;1.00
12152;DHT22;6139;51.274;7.128;2023-03-01T02:10:24;-0.90;1.00
12152;DHT22;6139;51.274;7.128;2023-03-01T02:11:27;-0.80;1.00
12152;DHT22;6139;51.274;7.128;2023-03-01T02:12:29;-0.80;1.00
12152;DHT22;6139;51.274;7.128;2023-03-01T02:13:31;-0.80;1.00
12152;DHT22;6139;51.274;7.128;2023-03-01T02:14:33;-0.90;1.00
12152;DHT22;6139;51.274;7.128;2023-03-01T02:15:36;-0.90;1.00
12152;DHT22;6139;51.274;7.128;2023-03-01T02:16:38;-0.90;1.00
12152;DHT22;6139;51.274;7.128;2023-03-01T02:17:40;-0.90;1.00
12152;DHT22;6139;51.274;7.128;2023-03-01T02:18:43;-0.80;1.00
12152;DHT22;6139;51.274;7.128;2023-03-01T02:19:55;-0.80;1.00
12152;DHT22;6139;51.274;7.128;2023-03-01T02:21:08;-0.70;1.00
12152;DHT22;6139;51.274;7.128;2023-03-01T02:22:20;-0.70;1.00
12152;DHT22;6139;51.274;7.128;2023-03-01T02:23:23;-0.60;1.00
12152;DHT22;6139;51.274;7.128;2023-03-01T02:24:31;-0.60;1.00
12152;DHT22;6139;51.274;7.128;2023-03-01T02:25:39;-0.50;1.00
12152;DHT22;6139;51.274;7.128;2023-03-01T02:26:47;-0.50;1.00
12152;DHT22;6139;51.274;7.128;2023-03-01T02:28:00;-0.50;1.00
12152;DHT22;6139;51.274;7.128;2023-03-01T02:29:06;-0.50;1.00
12152;DHT22;6139;51.274;7.128;2023-03-01T02:30:08;-0.50;1.00
12152;DHT22;6139;51.274;7.128;2023-03-01T02:31:16;-0.50;1.00
12152;DHT22;6139;51.274;7.128;2023-03-01T02:32:36;-0.50;1.00
12152;DHT22;6139;51.274;7.128;2023-03-01T02:33:39;-0.50;1.00
12152;DHT22;6139;51.274;7.128;2023-03-01T02:34:41;-0.50;1.00
12152;DHT22;6139;51.274;7.128;2023-03-01T02:35:42;-0.50;1.00
12152;DHT22;6139;51.274;7.128;2023-03-01T02:36:47;-0.50;1.00
12152;DHT22;6139;51.274;7.128;2023-03-01T02:37:48;-0.50;1.00
12152;DHT22;6139;51.274;7.128;2023-03-01T02:38:52;-0.50;1.00
12152;DHT22;6139;51.274;7.128;2023-03-01T02:39:58;-0.60;1.00
12152;DHT22;6139;51.274;7.128;2023-03-01T02:41:02;-0.60;1.00
12152;DHT22;6139;51.274;7.128;2023-03-01T02:42:04;-0.60;1.00
12152;DHT22;6139;51.274;7.128;2023-03-01T02:43:09;-0.60;1.00
12152;DHT22;6139;51.274;7.128;2023-03-01T02:44:12;-0.60;1.00
12152;DHT22;6139;51.274;7.128;2023-03-01T02:45:14;-0.60;1.00
12152;DHT22;6139;51.274;7.128;2023-03-01T02:46:17;-0.60;1.00
12152;DHT22;6139;51.274;7.128;2023-03-01T02:47:19;-0.70;1.00
12152;DHT22;6139;51.274;7.128;2023-03-01T02:48:21;-0.60;1.00
12152;DHT22;6139;51.274;7.128;2023-03-01T02:49:26;-0.60;1.00
12152;DHT22;6139;51.274;7.128;2023-03-01T02:50:44;-0.70;1.00
12152;DHT22;6139;51.274;7.128;2023-03-01T02:53:14;-0.70;1.00
12152;DHT22;6139;51.274;7.128;2023-03-01T02:54:23;-0.70;1.00
12152;DHT22;6139;51.274;7.128;2023-03-01T02:55:25;-0.80;1.00
12152;DHT22;6139;51.274;7.128;2023-03-01T02:56:29;-0.80;1.00
12152;DHT22;6139;51.274;7.128;2023-03-01T02:57:31;-0.80;1.00
12152;DHT22;6139;51.274;7.128;2023-03-01T02:58:33;-0.80;1.00
12152;DHT22;6139;51.274;7.128;2023-03-01T02:59:48;-0.80;1.00
12152;DHT22;6139;51.274;7.128;2023-03-01T03:00:51;-0.80;1.00
12152;DHT22;6139;51.274;7.128;2023-03-01T03:01:52;-0.80;1.00
12152;DHT22;6139;51.274;7.128;2023-03-01T03:02:54;-0.80;1.00
12152;DHT22;6139;51.274;7.128;2023-03-01T03:04:00;-0.80;1.00
12152;DHT22;6139;51.274;7.128;2023-03-01T03:05:04;-0.80;1.00
12152;DHT22;6139;51.274;7.128;2023-03-01T03:06:07;-0.80;1.00
12152;DHT22;6139;51.274;7.128;2023-03-01T03:07:09;-0.70;1.00
12152;DHT22;6139;51.274;7.128;2023-03-01T03:08:10;-0.70;1.00
12152;DHT22;6139;51.274;7.128;2023-03-01T03:09:12;-0.70;1.00
12152;DHT22;6139;51.274;7.128;2023-03-01T03:10:16;-0.70;1.00
12152;DHT22;6139;51.274;7.128;2023-03-01T03:11:19;-0.70;1.00
12152;DHT22;6139;51.274;7.128;2023-03-01T03:12:21;-0.70;1.00
12152;DHT22;6139;51.274;7.128;2023-03-01T03:13:24;-0.70;1.00
12152;DHT22;6139;51.274;7.128;2023-03-01T03:14:29;-0.70;1.00
12152;DHT22;6139;51.274;7.128;2023-03-01T03:15:37;-0.60;1.00
12152;DHT22;6139;51.274;7.128;2023-03-01T03:16:40;-0.60;1.00
12152;DHT22;6139;51.274;7.128;2023-03-01T03:17:42;-0.60;1.00
12152;DHT22;6139;51.274;7.128;2023-03-01T03:18:43;-0.70;1.00
12152;DHT22;6139;51.274;7.128;2023-03-01T03:19:45;-0.60;1.00
12152;DHT22;6139;51.274;7.128;2023-03-01T03:20:46;-0.60;1.00
12152;DHT22;6139;51.274;7.128;2023-03-01T03:21:53;-0.60;1.00
12152;DHT22;6139;51.274;7.128;2023-03-01T03:22:55;-0.60;1.00
12152;DHT22;6139;51.274;7.128;2023-03-01T03:23:57;-0.60;1.00
12152;DHT22;6139;51.274;7.128;2023-03-01T03:24:58;-0.70;1.00
12152;DHT22;6139;51.274;7.128;2023-03-01T03:26:00;-0.70;1.00
12152;DHT22;6139;51.274;7.128;2023-03-01T03:27:01;-0.70;1.00
12152;DHT22;6139;51.274;7.128;2023-03-01T03:28:03;-0.70;1.00
12152;DHT22;6139;51.274;7.128;2023-03-01T03:29:09;-0.70;1.00
12152;DHT22;6139;51.274;7.128;2023-03-01T03:30:14;-0.70;1.00
12152;DHT22;6139;51.274;7.128;2023-03-01T03:31:17;-0.70;1.00
12152;DHT22;6139;51.274;7.128;2023-03-01T03:32:19;-0.70;1.00
12152;DHT22;6139;51.274;7.128;2023-03-01T03:33:20;-0.70;1.00
12152;DHT22;6139;51.274;7.128;2023-03-01T03:34:22;-0.80;1.00
12152;DHT22;6139;51.274;7.128;2023-03-01T03:35:24;-0.70;1.00
12152;DHT22;6139;51.274;7.128;2023-03-01T03:36:27;-0.70;1.00
12152;DHT22;6139;51.274;7.128;2023-03-01T03:37:27;-0.70;1.00
12152;DHT22;6139;51.274;7.128;2023-03-01T03:38:47;-0.80;1.00
12152;DHT22;6139;51.274;7.128;2023-03-01T03:39:49;-0.80;1.00
12152;DHT22;6139;51.274;7.128;2023-03-01T03:41:00;-0.80;1.00
12152;DHT22;6139;51.274;7.128;2023-03-01T03:42:02;-0.80;1.00
12152;DHT22;6139;51.274;7.128;2023-03-01T03:43:06;-0.80;1.00
12152;DHT22;6139;51.274;7.128;2023-03-01T03:44:08;-0.80;1.00
12152;DHT22;6139;51.274;7.128;2023-03-01T03:45:09;-0.80;1.00
12152;DHT22;6139;51.274;7.128;2023-03-01T03:46:11;-0.80;1.00
12152;DHT22;6139;51.274;7.128;2023-03-01T03:47:14;-0.80;1.00
12152;DHT22;6139;51.274;7.128;2023-03-01T03:48:17;-0.80;1.00
12152;DHT22;6139;51.274;7.128;2023-03-01T03:49:18;-0.80;1.00
12152;DHT22;6139;51.274;7.128;2023-03-01T03:50:20;-0.80;1.00
12152;DHT22;6139;51.274;7.128;2023-03-01T03:51:21;-0.80;1.00
12152;DHT22;6139;51.274;7.128;2023-03-01T03:52:23;-0.80;1.00
12152;DHT22;6139;51.274;7.128;2023-03-01T03:53:28;-0.80;1.00
12152;DHT22;6139;51.274;7.128;2023-03-01T03:54:30;-0.70;1.00
12152;DHT22;6139;51.274;7.128;2023-03-01T03:55:32;-0.70;1.00
12152;DHT22;6139;51.274;7.128;2023-03-01T03:56:34;-0.70;1.00
12152;DHT22;6139;51.274;7.128;2023-03-01T03:57:35;-0.80;1.00
12152;DHT22;6139;51.274;7.128;2023-03-01T03:58:37;-0.80;1.00
12152;DHT22;6139;51.274;7.128;2023-03-01T03:59:39;-0.80;1.00
12152;DHT22;6139;51.274;7.128;2023-03-01T04:00:42;-0.80;1.00
12152;DHT22;6139;51.274;7.128;2023-03-01T04:01:44;-0.80;1.00
12152;DHT22;6139;51.274;7.128;2023-03-01T04:02:48;-0.90;1.00
12152;DHT22;6139;51.274;7.128;2023-03-01T04:03:49;-0.90;1.00
12152;DHT22;6139;51.274;7.128;2023-03-01T04:04:54;-0.90;1.00
12152;DHT22;6139;51.274;7.128;2023-03-01T04:05:58;-0.90;1.00
12152;DHT22;6139;51.274;7.128;2023-03-01T04:07:00;-0.90;1.00
12152;DHT22;6139;51.274;7.128;2023-03-01T04:08:01;-0.90;1.00
12152;DHT22;6139;51.274;7.128;2023-03-01T04:09:03;-1.00;1.00
12152;DHT22;6139;51.274;7.128;2023-03-01T04:10:07;-1.00;1.00
12152;DHT22;6139;51.274;7.128;2023-03-01T04:11:09;-1.00;1.00
12152;DHT22;6139;51.274;7.128;2023-03-01T04:12:29;-1.00;1.00
12152;DHT22;6139;51.274;7.128;2023-03-01T04:13:30;-1.00;1.00
12152;DHT22;6139;51.274;7.128;2023-03-01T04:14:32;-1.10;1.00
12152;DHT22;6139;51.274;7.128;2023-03-01T04:15:34;-1.10;1.00
12152;DHT22;6139;51.274;7.128;2023-03-01T04:16:36;-1.10;1.00
12152;DHT22;6139;51.274;7.128;2023-03-01T04:17:37;-1.00;1.00
12152;DHT22;6139;51.274;7.128;2023-03-01T04:18:41;-1.00;1.00
12152;DHT22;6139;51.274;7.128;2023-03-01T04:19:42;-1.00;1.00
12152;DHT22;6139;51.274;7.128;2023-03-01T04:20:44;-1.10;1.00
12152;DHT22;6139;51.274;7.128;2023-03-01T04:21:45;-1.10;1.00
12152;DHT22;6139;51.274;7.128;2023-03-01T04:22:47;-1.10;1.00
12152;DHT22;6139;51.274;7.128;2023-03-01T04:23:48;-1.10;1.00
12152;DHT22;6139;51.274;7.128;2023-03-01T04:24:53;-1.10;1.00
12152;DHT22;6139;51.274;7.128;2023-03-01T04:25:55;-1.20;1.00
12152;DHT22;6139;51.274;7.128;2023-03-01T04:26:57;-1.20;1.00
12152;DHT22;6139;51.274;7.128;2023-03-01T04:27:58;-1.20;1.00
12152;DHT22;6139;51.274;7.128;2023-03-01T04:29:00;-1.20;1.00
12152;DHT22;6139;51.274;7.128;2023-03-01T04:30:03;-1.20;1.00
12152;DHT22;6139;51.274;7.128;2023-03-01T04:31:06;-1.20;1.00
12152;DHT22;6139;51.274;7.128;2023-03-01T04:32:13;-1.20;1.00
12152;DHT22;6139;51.274;7.128;2023-03-01T04:33:17;-1.20;1.00
12152;DHT22;6139;51.274;7.128;2023-03-01T04:34:20;-1.20;1.00
12152;DHT22;6139;51.274;7.128;2023-03-01T04:35:21;-1.20;1.00
12152;DHT22;6139;51.274;7.128;2023-03-01T04:36:25;-1.20;1.00
12152;DHT22;6139;51.274;7.128;2023-03-01T04:37:27;-1.20;1.00
12152;DHT22;6139;51.274;7.128;2023-03-01T04:38:30;-1.20;1.00
12152;DHT22;6139;51.274;7.128;2023-03-01T04:39:31;-1.20;1.00
12152;DHT22;6139;51.274;7.128;2023-03-01T04:40:33;-1.20;1.00
12152;DHT22;6139;51.274;7.128;2023-03-01T04:41:34;-1.20;1.00
12152;DHT22;6139;51.274;7.128;2023-03-01T04:42:36;-1.20;1.00
12152;DHT22;6139;51.274;7.128;2023-03-01T04:43:37;-1.20;1.00
12152;DHT22;6139;51.274;7.128;2023-03-01T04:44:40;-1.20;1.00
12152;DHT22;6139;51.274;7.128;2023-03-01T04:45:41;-1.20;1.00
12152;DHT22;6139;51.274;7.128;2023-03-01T04:46:43;-1.20;1.00
12152;DHT22;6139;51.274;7.128;2023-03-01T04:47:45;-1.20;1.00
12152;DHT22;6139;51.274;7.128;2023-03-01T04:48:47;-1.30;1.00
12152;DHT22;6139;51.274;7.128;2023-03-01T04:49:50;-1.30;1.00
12152;DHT22;6139;51.274;7.128;2023-03-01T04:50:52;-1.30;1.00
12152;DHT22;6139;51.274;7.128;2023-03-01T04:51:53;-1.30;1.00
12152;DHT22;6139;51.274;7.128;2023-03-01T04:52:55;-1.30;1.00
12152;DHT22;6139;51.274;7.128;2023-03-01T04:53:59;-1.30;1.00
12152;DHT22;6139;51.274;7.128;2023-03-01T04:55:01;-1.30;1.00
12152;DHT22;6139;51.274;7.128;2023-03-01T04:56:05;-1.30;1.00
12152;DHT22;6139;51.274;7.128;2023-03-01T04:57:06;-1.30;1.00
12152;DHT22;6139;51.274;7.128;2023-03-01T04:58:07;-1.30;1.00
12152;DHT22;6139;51.274;7.128;2023-03-01T04:59:10;-1.30;1.00
12152;DHT22;6139;51.274;7.128;2023-03-01T05:00:14;-1.30;1.00
12152;DHT22;6139;51.274;7.128;2023-03-01T05:01:22;-1.30;1.00
12152;DHT22;6139;51.274;7.128;2023-03-01T05:02:22;-1.30;1.00
12152;DHT22;6139;51.274;7.128;2023-03-01T05:03:24;-1.30;1.00
12152;DHT22;6139;51.274;7.128;2023-03-01T05:04:25;-1.30;1.00
12152;DHT22;6139;51.274;7.128;2023-03-01T05:05:31;-1.30;1.00
12152;DHT22;6139;51.274;7.128;2023-03-01T05:06:32;-1.20;1.00
12152;DHT22;6139;51.274;7.128;2023-03-01T05:07:34;-1.30;1.00
12152;DHT22;6139;51.274;7.128;2023-03-01T05:08:35;-1.30;1.00
12152;DHT22;6139;51.274;7.128;2023-03-01T05:09:38;-1.30;1.00
12152;DHT22;6139;51.274;7.128;2023-03-01T05:10:39;-1.30;1.00
12152;DHT22;6139;51.274;7.128;2023-03-01T05:11:42;-1.30;1.00
12152;DHT22;6139;51.274;7.128;2023-03-01T05:12:43;-1.30;1.00
12152;DHT22;6139;51.274;7.128;2023-03-01T05:13:45;-1.20;1.00
12152;DHT22;6139;51.274;7.128;2023-03-01T05:14:46;-1.20;1.00
12152;DHT22;6139;51.274;7.128;2023-03-01T05:15:48;-1.30;1.00
12152;DHT22;6139;51.274;7.128;2023-03-01T05:16:49;-1.30;1.00
12152;DHT22;6139;51.274;7.128;2023-03-01T05:17:51;-1.30;1.00
12152;DHT22;6139;51.274;7.128;2023-03-01T05:18:53;-1.30;1.00
12152;DHT22;6139;51.274;7.128;2023-03-01T05:19:56;-1.30;1.00
12152;DHT22;6139;51.274;7.128;2023-03-01T05:21:05;-1.30;1.00
12152;DHT22;6139;51.274;7.128;2023-03-01T05:22:07;-1.30;1.00
12152;DHT22;6139;51.274;7.128;2023-03-01T05:23:08;-1.30;1.00
12152;DHT22;6139;51.274;7.128;2023-03-01T05:24:10;-1.30;1.00
12152;DHT22;6139;51.274;7.128;2023-03-01T05:25:12;-1.30;1.00
12152;DHT22;6139;51.274;7.128;2023-03-01T05:26:15;-1.40;1.00
12152;DHT22;6139;51.274;7.128;2023-03-01T05:27:18;-1.30;1.00
12152;DHT22;6139;51.274;7.128;2023-03-01T05:28:22;-1.30;1.00
12152;DHT22;6139;51.274;7.128;2023-03-01T05:29:25;-1.40;1.00
12152;DHT22;6139;51.274;7.128;2023-03-01T05:30:26;-1.40;1.00
12152;DHT22;6139;51.274;7.128;2023-03-01T05:31:28;-1.40;1.00
12152;DHT22;6139;51.274;7.128;2023-03-01T05:32:31;-1.40;1.00
12152;DHT22;6139;51.274;7.128;2023-03-01T05:33:33;-1.40;1.00
12152;DHT22;6139;51.274;7.128;2023-03-01T05:34:35;-1.50;1.00
12152;DHT22;6139;51.274;7.128;2023-03-01T05:35:37;-1.50;1.00
12152;DHT22;6139;51.274;7.128;2023-03-01T05:36:40;-1.50;1.00
12152;DHT22;6139;51.274;7.128;2023-03-01T05:37:42;-1.50;1.00
12152;DHT22;6139;51.274;7.128;2023-03-01T05:38:44;-1.50;1.00
12152;DHT22;6139;51.274;7.128;2023-03-01T05:39:45;-1.60;1.00
12152;DHT22;6139;51.274;7.128;2023-03-01T05:40:48;-1.60;1.00
12152;DHT22;6139;51.274;7.128;2023-03-01T05:41:52;-1.60;1.00
12152;DHT22;6139;51.274;7.128;2023-03-01T05:42:55;-1.60;1.00
12152;DHT22;6139;51.274;7.128;2023-03-01T05:43:56;-1.60;1.00
12152;DHT22;6139;51.274;7.128;2023-03-01T05:44:58;-1.60;1.00
12152;DHT22;6139;51.274;7.128;2023-03-01T05:45:59;-1.60;1.00
12152;DHT22;6139;51.274;7.128;2023-03-01T05:47:01;-1.60;1.00
12152;DHT22;6139;51.274;7.128;2023-03-01T05:48:03;-1.60;1.00
12152;DHT22;6139;51.274;7.128;2023-03-01T05:49:05;-1.60;1.00
12152;DHT22;6139;51.274;7.128;2023-03-01T05:50:07;-1.60;1.70
12152;DHT22;6139;51.274;7.128;2023-03-01T05:51:09;-1.60;7.10
12152;DHT22;6139;51.274;7.128;2023-03-01T05:52:14;-1.60;2.40
12152;DHT22;6139;51.274;7.128;2023-03-01T05:53:17;-1.70;15.30
12152;DHT22;6139;51.274;7.128;2023-03-01T05:54:20;-1.70;30.90
12152;DHT22;6139;51.274;7.128;2023-03-01T05:55:21;-1.70;41.80
12152;DHT22;6139;51.274;7.128;2023-03-01T05:56:23;-1.70;27.00
12152;DHT22;6139;51.274;7.128;2023-03-01T05:57:25;-1.70;34.20
12152;DHT22;6139;51.274;7.128;2023-03-01T05:58:28;-1.70;38.50
12152;DHT22;6139;51.274;7.128;2023-03-01T05:59:30;-1.70;31.90
12152;DHT22;6139;51.274;7.128;2023-03-01T06:00:31;-1.60;29.10
12152;DHT22;6139;51.274;7.128;2023-03-01T06:01:34;-1.60;23.50
12152;DHT22;6139;51.274;7.128;2023-03-01T06:02:35;-1.60;22.20
12152;DHT22;6139;51.274;7.128;2023-03-01T06:03:38;-1.60;20.10
12152;DHT22;6139;51.274;7.128;2023-03-01T06:04:39;-1.60;10.80
12152;DHT22;6139;51.274;7.128;2023-03-01T06:05:41;-1.60;15.40
12152;DHT22;6139;51.274;7.128;2023-03-01T06:06:43;-1.60;12.50
12152;DHT22;6139;51.274;7.128;2023-03-01T06:07:46;-1.60;1.90
12152;DHT22;6139;51.274;7.128;2023-03-01T06:08:48;-1.60;6.70
12152;DHT22;6139;51.274;7.128;2023-03-01T06:09:49;-1.60;1.00
12152;DHT22;6139;51.274;7.128;2023-03-01T06:10:50;-1.70;1.00
12152;DHT22;6139;51.274;7.128;2023-03-01T06:11:51;-1.70;12.60
12152;DHT22;6139;51.274;7.128;2023-03-01T06:12:54;-1.70;14.00
12152;DHT22;6139;51.274;7.128;2023-03-01T06:13:55;-1.70;1.30
12152;DHT22;6139;51.274;7.128;2023-03-01T06:14:56;-1.70;1.00
12152;DHT22;6139;51.274;7.128;2023-03-01T06:15:57;-1.60;8.40
12152;DHT22;6139;51.274;7.128;2023-03-01T06:16:59;-1.70;1.80
12152;DHT22;6139;51.274;7.128;2023-03-01T06:18:00;-1.70;9.50
12152;DHT22;6139;51.274;7.128;2023-03-01T06:19:02;-1.70;13.10
12152;DHT22;6139;51.274;7.128;2023-03-01T06:20:04;-1.70;5.10
12152;DHT22;6139;51.274;7.128;2023-03-01T06:21:08;-1.70;8.70
12152;DHT22;6139;51.274;7.128;2023-03-01T06:22:09;-1.70;2.50
12152;DHT22;6139;51.274;7.128;2023-03-01T06:23:12;-1.70;1.00
12152;DHT22;6139;51.274;7.128;2023-03-01T06:24:13;-1.70;1.00
12152;DHT22;6139;51.274;7.128;2023-03-01T06:25:16;-1.70;1.00
12152;DHT22;6139;51.274;7.128;2023-03-01T06:26:17;-1.70;1.00
12152;DHT22;6139;51.274;7.128;2023-03-01T06:27:19;-1.80;1.00
12152;DHT22;6139;51.274;7.128;2023-03-01T06:28:20;-1.80;6.00
12152;DHT22;6139;51.274;7.128;2023-03-01T06:29:23;-1.80;6.90
12152;DHT22;6139;51.274;7.128;2023-03-01T06:30:25;-1.80;4.60
12152;DHT22;6139;51.274;7.128;2023-03-01T06:31:27;-1.80;1.00
12152;DHT22;6139;51.274;7.128;2023-03-01T06:32:29;-1.80;1.00
12152;DHT22;6139;51.274;7.128;2023-03-01T06:33:30;-1.70;1.00
12152;DHT22;6139;51.274;7.128;2023-03-01T06:34:32;-1.80;1.00
12152;DHT22;6139;51.274;7.128;2023-03-01T06:35:34;-1.80;1.00
12152;DHT22;6139;51.274;7.128;2023-03-01T06:36:35;-1.70;1.00
12152;DHT22;6139;51.274;7.128;2023-03-01T06:37:36;-1.70;2.30
12152;DHT22;6139;51.274;7.128;2023-03-01T06:38:40;-1.70;1.00
12152;DHT22;6139;51.274;7.128;2023-03-01T06:39:41;-1.80;1.00
12152;DHT22;6139;51.274;7.128;2023-03-01T06:40:43;-1.80;1.00
12152;DHT22;6139;51.274;7.128;2023-03-01T06:41:44;-1.80;1.60
12152;DHT22;6139;51.274;7.128;2023-03-01T06:42:48;-1.80;4.60
12152;DHT22;6139;51.274;7.128;2023-03-01T06:43:49;-1.80;3.10
12152;DHT22;6139;51.274;7.128;2023-03-01T06:44:51;-1.80;4.00
12152;DHT22;6139;51.274;7.128;2023-03-01T06:45:52;-1.80;11.30
12152;DHT22;6139;51.274;7.128;2023-03-01T06:46:54;-1.80;4.20
12152;DHT22;6139;51.274;7.128;2023-03-01T06:48:03;-1.80;11.40
12152;DHT22;6139;51.274;7.128;2023-03-01T06:49:05;-1.80;7.30
12152;DHT22;6139;51.274;7.128;2023-03-01T06:50:10;-1.80;3.80
12152;DHT22;6139;51.274;7.128;2023-03-01T06:51:13;-1.80;1.00
12152;DHT22;6139;51.274;7.128;2023-03-01T06:52:14;-1.80;1.70
12152;DHT22;6139;51.274;7.128;2023-03-01T06:53:15;-1.80;1.00